This is the latest recevied weather packets stored in our database for station/object K3RTA-2. If no packets are shown the sender has not sent any weather packets the latest 10 day(s).
| Time | Temp. | Humidity | Pressure | Rain* | Wind** | Luminosity | Snow |
|---|---|---|---|---|---|---|---|
| 1777467904 | 15° C | 63% | 1015.6 hPa | 0 mm | - | - | - |
| 1777464304 | 12.78° C | 72% | 1015.5 hPa | 0 mm | - | - | - |
| 1777463404 | 12.22° C | 71% | 1015.9 hPa | 0 mm | - | - | - |
| 1777461006 | 11.11° C | 77% | 1016.1 hPa | 0 mm | - | - | - |
| 1777459805 | 10.56° C | 81% | 1016 hPa | 0 mm | - | - | - |
| 1777453504 | 10.56° C | 78% | 1016 hPa | 0 mm | - | - | - |
| 1777453205 | 10.56° C | 78% | 1015.9 hPa | 0 mm | - | - | - |
| 1777449904 | 10.56° C | 79% | 1016.3 hPa | 0 mm | - | - | - |
| 1777443906 | 10.56° C | 81% | 1017.3 hPa | 0 mm | - | - | - |
| 1777443605 | 10.56° C | 81% | 1017.4 hPa | 0 mm | - | - | - |
| 1777440004 | 10.56° C | 79% | 1018.1 hPa | 0 mm | - | - | - |
| 1777438504 | 10.56° C | 78% | 1018.3 hPa | 0 mm | - | - | - |
| 1777437904 | 10.56° C | 77% | 1018.3 hPa | 0 mm | - | - | - |
| 1777432804 | 11.11° C | 74% | 1018.5 hPa | 0 mm | - | - | - |
| 1777431605 | 11.11° C | 73% | 1018.9 hPa | 0 mm | - | - | - |
| 1777431305 | 11.11° C | 73% | 1018.9 hPa | 0 mm | - | - | - |
| 1777429205 | 11.11° C | 72% | 1018.7 hPa | 0 mm | - | - | - |
| 1777425604 | 11.11° C | 68% | 1018 hPa | 0 mm | - | - | - |
| 1777425004 | 11.67° C | 67% | 1018 hPa | 0 mm | - | - | - |
| 1777424404 | 11.67° C | 66% | 1017.7 hPa | 0 mm | - | - | - |
| 1777423504 | 12.22° C | 65% | 1018.6 hPa | 0 mm | - | - | - |
| 1777422604 | 12.22° C | 64% | 1019.1 hPa | 0 mm | - | - | - |
| 1777422304 | 12.22° C | 64% | 1019.1 hPa | 0 mm | - | - | - |
| 1777419304 | 12.78° C | 59% | 1018.8 hPa | 0 mm | - | - | - |
| 1777419004 | 13.33° C | 60% | 1018.8 hPa | 0 mm | - | - | - |
* Rain latest hour (hover to see other rain measurements)
** Current wind speed in m/s (hover to see current wind gust speed)